sensor_id;sensor_type;location;lat;lon;timestamp;P1;durP1;ratioP1;P2;durP2;ratioP2
24685;SDS011;12804;51.176;4.452;2023-04-29T00:02:12;37.70;;;22.55;;
24685;SDS011;12804;51.176;4.452;2023-04-29T00:04:38;41.17;;;23.10;;
24685;SDS011;12804;51.176;4.452;2023-04-29T00:07:04;44.88;;;24.38;;
24685;SDS011;12804;51.176;4.452;2023-04-29T00:09:30;42.95;;;24.85;;
24685;SDS011;12804;51.176;4.452;2023-04-29T00:11:55;49.05;;;25.58;;
24685;SDS011;12804;51.176;4.452;2023-04-29T00:14:22;41.55;;;24.33;;
24685;SDS011;12804;51.176;4.452;2023-04-29T00:16:48;42.65;;;26.48;;
24685;SDS011;12804;51.176;4.452;2023-04-29T00:19:14;45.33;;;25.70;;
24685;SDS011;12804;51.176;4.452;2023-04-29T00:21:42;44.00;;;26.25;;
24685;SDS011;12804;51.176;4.452;2023-04-29T00:24:08;48.80;;;27.45;;
24685;SDS011;12804;51.176;4.452;2023-04-29T00:26:34;44.35;;;25.67;;
24685;SDS011;12804;51.176;4.452;2023-04-29T00:29:00;45.13;;;26.23;;
24685;SDS011;12804;51.176;4.452;2023-04-29T00:31:26;43.47;;;26.50;;
24685;SDS011;12804;51.176;4.452;2023-04-29T00:33:51;41.60;;;25.75;;
24685;SDS011;12804;51.176;4.452;2023-04-29T00:36:17;44.13;;;26.98;;
24685;SDS011;12804;51.176;4.452;2023-04-29T00:38:43;39.47;;;26.30;;
24685;SDS011;12804;51.176;4.452;2023-04-29T00:41:09;38.60;;;24.15;;
24685;SDS011;12804;51.176;4.452;2023-04-29T00:43:35;40.72;;;24.85;;
24685;SDS011;12804;51.176;4.452;2023-04-29T00:46:01;37.53;;;23.65;;
24685;SDS011;12804;51.176;4.452;2023-04-29T00:48:26;35.15;;;23.38;;
24685;SDS011;12804;51.176;4.452;2023-04-29T00:50:52;36.65;;;23.88;;
24685;SDS011;12804;51.176;4.452;2023-04-29T00:53:18;36.88;;;23.25;;
24685;SDS011;12804;51.176;4.452;2023-04-29T00:55:45;38.83;;;24.23;;
24685;SDS011;12804;51.176;4.452;2023-04-29T00:58:12;36.95;;;23.98;;
24685;SDS011;12804;51.176;4.452;2023-04-29T01:00:38;34.33;;;24.15;;
24685;SDS011;12804;51.176;4.452;2023-04-29T01:03:05;36.92;;;21.42;;
24685;SDS011;12804;51.176;4.452;2023-04-29T01:05:33;32.65;;;21.90;;
24685;SDS011;12804;51.176;4.452;2023-04-29T01:08:09;29.90;;;20.55;;
24685;SDS011;12804;51.176;4.452;2023-04-29T01:13:15;26.52;;;18.85;;
24685;SDS011;12804;51.176;4.452;2023-04-29T01:15:54;27.45;;;19.48;;
24685;SDS011;12804;51.176;4.452;2023-04-29T01:18:41;25.77;;;19.13;;
24685;SDS011;12804;51.176;4.452;2023-04-29T01:21:16;23.95;;;17.67;;
24685;SDS011;12804;51.176;4.452;2023-04-29T01:23:42;21.58;;;16.63;;
24685;SDS011;12804;51.176;4.452;2023-04-29T01:26:10;21.25;;;16.08;;
24685;SDS011;12804;51.176;4.452;2023-04-29T01:39:53;23.77;;;16.48;;
24685;SDS011;12804;51.176;4.452;2023-04-29T01:42:34;20.85;;;16.00;;
24685;SDS011;12804;51.176;4.452;2023-04-29T01:45:14;18.92;;;14.48;;
24685;SDS011;12804;51.176;4.452;2023-04-29T01:47:45;19.30;;;13.93;;
24685;SDS011;12804;51.176;4.452;2023-04-29T01:50:14;18.27;;;13.73;;
24685;SDS011;12804;51.176;4.452;2023-04-29T01:52:39;30.67;;;16.30;;
24685;SDS011;12804;51.176;4.452;2023-04-29T01:55:05;19.58;;;15.48;;
24685;SDS011;12804;51.176;4.452;2023-04-29T01:57:49;23.70;;;16.77;;
24685;SDS011;12804;51.176;4.452;2023-04-29T02:00:34;25.35;;;16.83;;
24685;SDS011;12804;51.176;4.452;2023-04-29T02:03:00;24.40;;;17.45;;
24685;SDS011;12804;51.176;4.452;2023-04-29T02:05:35;21.10;;;16.58;;
24685;SDS011;12804;51.176;4.452;2023-04-29T02:08:01;21.35;;;15.65;;
24685;SDS011;12804;51.176;4.452;2023-04-29T02:10:29;21.30;;;15.60;;
24685;SDS011;12804;51.176;4.452;2023-04-29T02:13:21;21.77;;;15.85;;
24685;SDS011;12804;51.176;4.452;2023-04-29T02:15:47;23.73;;;16.35;;
24685;SDS011;12804;51.176;4.452;2023-04-29T02:18:14;21.58;;;15.60;;
24685;SDS011;12804;51.176;4.452;2023-04-29T02:20:40;23.35;;;15.35;;
24685;SDS011;12804;51.176;4.452;2023-04-29T02:23:06;23.80;;;16.38;;
24685;SDS011;12804;51.176;4.452;2023-04-29T02:25:34;24.50;;;17.33;;
24685;SDS011;12804;51.176;4.452;2023-04-29T02:28:00;29.80;;;18.92;;
24685;SDS011;12804;51.176;4.452;2023-04-29T02:30:26;30.40;;;18.88;;
24685;SDS011;12804;51.176;4.452;2023-04-29T02:32:52;35.22;;;21.83;;
24685;SDS011;12804;51.176;4.452;2023-04-29T02:35:18;38.38;;;25.15;;
24685;SDS011;12804;51.176;4.452;2023-04-29T02:37:44;37.40;;;25.15;;
24685;SDS011;12804;51.176;4.452;2023-04-29T02:40:10;41.65;;;25.65;;
24685;SDS011;12804;51.176;4.452;2023-04-29T02:42:36;42.30;;;26.42;;
24685;SDS011;12804;51.176;4.452;2023-04-29T02:45:02;41.78;;;27.27;;
24685;SDS011;12804;51.176;4.452;2023-04-29T02:47:28;41.08;;;26.20;;
24685;SDS011;12804;51.176;4.452;2023-04-29T02:49:54;45.50;;;27.50;;
24685;SDS011;12804;51.176;4.452;2023-04-29T02:52:20;41.17;;;27.10;;
24685;SDS011;12804;51.176;4.452;2023-04-29T02:54:46;43.80;;;28.50;;
24685;SDS011;12804;51.176;4.452;2023-04-29T02:57:12;48.63;;;27.67;;
24685;SDS011;12804;51.176;4.452;2023-04-29T02:59:38;43.95;;;27.08;;
24685;SDS011;12804;51.176;4.452;2023-04-29T03:02:04;45.90;;;27.67;;
24685;SDS011;12804;51.176;4.452;2023-04-29T03:04:30;47.60;;;28.42;;
24685;SDS011;12804;51.176;4.452;2023-04-29T03:06:56;39.83;;;27.45;;
24685;SDS011;12804;51.176;4.452;2023-04-29T03:09:24;42.80;;;27.10;;
24685;SDS011;12804;51.176;4.452;2023-04-29T03:11:50;49.08;;;28.65;;
24685;SDS011;12804;51.176;4.452;2023-04-29T03:14:17;43.00;;;26.45;;
24685;SDS011;12804;51.176;4.452;2023-04-29T03:16:46;40.53;;;27.05;;
24685;SDS011;12804;51.176;4.452;2023-04-29T03:19:12;44.28;;;26.73;;
24685;SDS011;12804;51.176;4.452;2023-04-29T03:21:38;43.08;;;26.20;;
24685;SDS011;12804;51.176;4.452;2023-04-29T03:24:05;48.42;;;26.60;;
24685;SDS011;12804;51.176;4.452;2023-04-29T03:26:32;42.83;;;26.25;;
24685;SDS011;12804;51.176;4.452;2023-04-29T03:28:58;41.55;;;26.58;;
24685;SDS011;12804;51.176;4.452;2023-04-29T03:31:25;46.63;;;27.02;;
24685;SDS011;12804;51.176;4.452;2023-04-29T03:33:51;46.22;;;26.73;;
24685;SDS011;12804;51.176;4.452;2023-04-29T03:36:19;42.25;;;25.80;;
24685;SDS011;12804;51.176;4.452;2023-04-29T03:38:58;43.13;;;27.30;;
24685;SDS011;12804;51.176;4.452;2023-04-29T03:41:25;46.92;;;26.65;;
24685;SDS011;12804;51.176;4.452;2023-04-29T03:43:51;38.90;;;25.95;;
24685;SDS011;12804;51.176;4.452;2023-04-29T03:46:19;41.65;;;25.73;;
24685;SDS011;12804;51.176;4.452;2023-04-29T03:48:44;42.40;;;26.40;;
24685;SDS011;12804;51.176;4.452;2023-04-29T03:51:10;42.03;;;26.38;;
24685;SDS011;12804;51.176;4.452;2023-04-29T03:53:37;38.95;;;24.95;;
24685;SDS011;12804;51.176;4.452;2023-04-29T03:56:04;40.47;;;25.55;;
24685;SDS011;12804;51.176;4.452;2023-04-29T03:58:31;38.75;;;25.20;;
24685;SDS011;12804;51.176;4.452;2023-04-29T04:00:56;41.65;;;24.25;;
24685;SDS011;12804;51.176;4.452;2023-04-29T04:03:30;41.17;;;23.90;;
24685;SDS011;12804;51.176;4.452;2023-04-29T04:05:57;40.97;;;25.83;;
24685;SDS011;12804;51.176;4.452;2023-04-29T04:08:23;39.60;;;25.15;;
24685;SDS011;12804;51.176;4.452;2023-04-29T04:11:09;42.60;;;24.48;;
24685;SDS011;12804;51.176;4.452;2023-04-29T04:13:43;34.20;;;22.90;;
24685;SDS011;12804;51.176;4.452;2023-04-29T04:16:09;36.53;;;23.33;;
24685;SDS011;12804;51.176;4.452;2023-04-29T04:18:36;37.38;;;24.27;;
24685;SDS011;12804;51.176;4.452;2023-04-29T04:21:06;35.08;;;24.00;;
24685;SDS011;12804;51.176;4.452;2023-04-29T04:23:37;36.13;;;22.55;;
24685;SDS011;12804;51.176;4.452;2023-04-29T04:26:11;31.75;;;23.10;;
24685;SDS011;12804;51.176;4.452;2023-04-29T04:28:57;35.95;;;22.65;;
24685;SDS011;12804;51.176;4.452;2023-04-29T04:31:32;33.70;;;22.23;;
24685;SDS011;12804;51.176;4.452;2023-04-29T04:33:58;40.28;;;23.38;;
24685;SDS011;12804;51.176;4.452;2023-04-29T04:36:26;40.33;;;22.02;;
24685;SDS011;12804;51.176;4.452;2023-04-29T04:38:53;36.25;;;22.63;;
24685;SDS011;12804;51.176;4.452;2023-04-29T04:41:19;32.35;;;21.88;;
24685;SDS011;12804;51.176;4.452;2023-04-29T04:43:46;34.83;;;21.92;;
24685;SDS011;12804;51.176;4.452;2023-04-29T04:46:31;30.73;;;21.13;;
24685;SDS011;12804;51.176;4.452;2023-04-29T04:49:17;26.83;;;19.67;;
24685;SDS011;12804;51.176;4.452;2023-04-29T04:51:51;28.52;;;19.02;;
24685;SDS011;12804;51.176;4.452;2023-04-29T04:54:17;26.05;;;17.63;;
24685;SDS011;12804;51.176;4.452;2023-04-29T04:56:43;23.98;;;17.55;;
24685;SDS011;12804;51.176;4.452;2023-04-29T04:59:09;22.90;;;16.13;;
24685;SDS011;12804;51.176;4.452;2023-04-29T05:01:37;22.58;;;16.42;;
24685;SDS011;12804;51.176;4.452;2023-04-29T05:04:03;23.95;;;17.08;;
24685;SDS011;12804;51.176;4.452;2023-04-29T05:06:29;25.27;;;18.13;;
24685;SDS011;12804;51.176;4.452;2023-04-29T05:08:55;27.00;;;18.95;;
24685;SDS011;12804;51.176;4.452;2023-04-29T05:11:22;27.08;;;19.67;;
24685;SDS011;12804;51.176;4.452;2023-04-29T05:14:03;30.35;;;20.60;;
24685;SDS011;12804;51.176;4.452;2023-04-29T05:16:30;29.40;;;21.55;;
24685;SDS011;12804;51.176;4.452;2023-04-29T05:18:55;27.42;;;21.38;;
24685;SDS011;12804;51.176;4.452;2023-04-29T05:21:25;34.63;;;22.20;;
24685;SDS011;12804;51.176;4.452;2023-04-29T05:23:56;27.10;;;20.52;;
24685;SDS011;12804;51.176;4.452;2023-04-29T05:26:22;28.13;;;20.92;;
24685;SDS011;12804;51.176;4.452;2023-04-29T05:28:49;32.22;;;22.08;;
24685;SDS011;12804;51.176;4.452;2023-04-29T05:31:16;30.23;;;22.30;;
24685;SDS011;12804;51.176;4.452;2023-04-29T05:33:42;27.00;;;21.27;;
24685;SDS011;12804;51.176;4.452;2023-04-29T05:36:08;30.63;;;22.95;;
24685;SDS011;12804;51.176;4.452;2023-04-29T05:38:34;32.28;;;23.27;;
24685;SDS011;12804;51.176;4.452;2023-04-29T05:41:04;28.50;;;23.08;;
24685;SDS011;12804;51.176;4.452;2023-04-29T05:43:49;30.85;;;22.30;;
24685;SDS011;12804;51.176;4.452;2023-04-29T05:46:18;27.45;;;19.50;;
24685;SDS011;12804;51.176;4.452;2023-04-29T05:48:45;24.90;;;20.42;;
24685;SDS011;12804;51.176;4.452;2023-04-29T05:51:11;32.85;;;22.90;;
24685;SDS011;12804;51.176;4.452;2023-04-29T05:53:38;33.58;;;22.92;;
24685;SDS011;12804;51.176;4.452;2023-04-29T05:56:05;30.27;;;22.83;;
24685;SDS011;12804;51.176;4.452;2023-04-29T05:58:33;29.75;;;23.13;;
24685;SDS011;12804;51.176;4.452;2023-04-29T06:00:59;35.15;;;25.27;;
24685;SDS011;12804;51.176;4.452;2023-04-29T06:03:26;34.97;;;25.05;;
24685;SDS011;12804;51.176;4.452;2023-04-29T06:06:27;32.53;;;24.42;;
24685;SDS011;12804;51.176;4.452;2023-04-29T06:09:19;30.13;;;24.08;;
24685;SDS011;12804;51.176;4.452;2023-04-29T06:11:45;36.67;;;23.27;;
24685;SDS011;12804;51.176;4.452;2023-04-29T06:14:14;37.25;;;24.85;;
24685;SDS011;12804;51.176;4.452;2023-04-29T06:16:40;31.63;;;24.75;;
24685;SDS011;12804;51.176;4.452;2023-04-29T06:19:07;33.42;;;24.38;;
24685;SDS011;12804;51.176;4.452;2023-04-29T06:21:33;33.83;;;25.35;;
24685;SDS011;12804;51.176;4.452;2023-04-29T06:23:59;36.40;;;26.90;;
24685;SDS011;12804;51.176;4.452;2023-04-29T06:26:25;40.10;;;25.67;;
24685;SDS011;12804;51.176;4.452;2023-04-29T06:28:50;35.35;;;26.70;;
24685;SDS011;12804;51.176;4.452;2023-04-29T06:31:17;37.20;;;25.35;;
24685;SDS011;12804;51.176;4.452;2023-04-29T06:33:42;32.53;;;25.40;;
24685;SDS011;12804;51.176;4.452;2023-04-29T06:36:08;33.47;;;24.60;;
24685;SDS011;12804;51.176;4.452;2023-04-29T06:38:53;32.20;;;24.30;;
24685;SDS011;12804;51.176;4.452;2023-04-29T06:41:30;27.60;;;22.48;;
24685;SDS011;12804;51.176;4.452;2023-04-29T06:44:15;28.23;;;20.60;;
24685;SDS011;12804;51.176;4.452;2023-04-29T06:47:09;29.75;;;20.10;;
24685;SDS011;12804;51.176;4.452;2023-04-29T06:49:46;26.83;;;19.38;;
24685;SDS011;12804;51.176;4.452;2023-04-29T06:52:12;23.85;;;17.95;;
24685;SDS011;12804;51.176;4.452;2023-04-29T06:54:38;24.85;;;18.15;;
24685;SDS011;12804;51.176;4.452;2023-04-29T06:57:03;24.35;;;17.85;;
24685;SDS011;12804;51.176;4.452;2023-04-29T06:59:29;26.00;;;18.90;;
24685;SDS011;12804;51.176;4.452;2023-04-29T07:01:57;23.80;;;18.40;;
24685;SDS011;12804;51.176;4.452;2023-04-29T07:04:22;23.15;;;17.60;;
24685;SDS011;12804;51.176;4.452;2023-04-29T07:06:48;21.90;;;16.95;;
24685;SDS011;12804;51.176;4.452;2023-04-29T07:09:15;22.17;;;16.33;;
24685;SDS011;12804;51.176;4.452;2023-04-29T07:11:41;24.95;;;16.98;;
24685;SDS011;12804;51.176;4.452;2023-04-29T07:14:07;24.42;;;17.38;;
24685;SDS011;12804;51.176;4.452;2023-04-29T07:16:33;22.77;;;18.00;;
24685;SDS011;12804;51.176;4.452;2023-04-29T07:18:59;27.80;;;17.52;;
24685;SDS011;12804;51.176;4.452;2023-04-29T07:21:26;22.42;;;16.30;;
24685;SDS011;12804;51.176;4.452;2023-04-29T07:23:51;23.60;;;16.80;;
24685;SDS011;12804;51.176;4.452;2023-04-29T07:26:19;25.25;;;16.95;;
24685;SDS011;12804;51.176;4.452;2023-04-29T07:28:46;26.13;;;16.77;;
24685;SDS011;12804;51.176;4.452;2023-04-29T07:31:13;21.25;;;15.63;;
24685;SDS011;12804;51.176;4.452;2023-04-29T07:33:39;23.80;;;16.75;;
24685;SDS011;12804;51.176;4.452;2023-04-29T07:36:05;22.27;;;15.93;;
24685;SDS011;12804;51.176;4.452;2023-04-29T07:38:32;20.02;;;14.85;;
24685;SDS011;12804;51.176;4.452;2023-04-29T07:40:58;23.58;;;16.88;;
24685;SDS011;12804;51.176;4.452;2023-04-29T07:43:24;24.17;;;16.98;;
24685;SDS011;12804;51.176;4.452;2023-04-29T07:45:50;22.42;;;15.68;;
24685;SDS011;12804;51.176;4.452;2023-04-29T07:48:16;19.75;;;14.95;;
24685;SDS011;12804;51.176;4.452;2023-04-29T07:50:42;22.98;;;15.38;;
24685;SDS011;12804;51.176;4.452;2023-04-29T07:53:08;22.30;;;15.90;;
24685;SDS011;12804;51.176;4.452;2023-04-29T07:55:36;22.38;;;14.85;;
24685;SDS011;12804;51.176;4.452;2023-04-29T07:58:03;23.75;;;15.10;;
24685;SDS011;12804;51.176;4.452;2023-04-29T08:00:28;17.17;;;12.98;;
24685;SDS011;12804;51.176;4.452;2023-04-29T08:02:55;18.52;;;13.27;;
24685;SDS011;12804;51.176;4.452;2023-04-29T08:05:22;17.50;;;13.95;;
24685;SDS011;12804;51.176;4.452;2023-04-29T08:07:51;20.08;;;13.73;;
24685;SDS011;12804;51.176;4.452;2023-04-29T08:10:17;21.60;;;14.10;;
24685;SDS011;12804;51.176;4.452;2023-04-29T08:12:49;18.58;;;13.50;;
24685;SDS011;12804;51.176;4.452;2023-04-29T08:15:15;19.05;;;13.07;;
24685;SDS011;12804;51.176;4.452;2023-04-29T08:17:42;18.83;;;13.48;;
24685;SDS011;12804;51.176;4.452;2023-04-29T08:20:08;15.32;;;12.80;;
24685;SDS011;12804;51.176;4.452;2023-04-29T08:22:35;17.13;;;13.05;;
24685;SDS011;12804;51.176;4.452;2023-04-29T08:25:02;22.25;;;13.88;;
24685;SDS011;12804;51.176;4.452;2023-04-29T08:27:29;15.25;;;12.93;;
24685;SDS011;12804;51.176;4.452;2023-04-29T08:29:55;20.67;;;13.70;;
24685;SDS011;12804;51.176;4.452;2023-04-29T08:32:21;19.38;;;13.20;;
24685;SDS011;12804;51.176;4.452;2023-04-29T08:34:47;18.05;;;13.32;;
24685;SDS011;12804;51.176;4.452;2023-04-29T08:37:13;19.35;;;12.38;;
24685;SDS011;12804;51.176;4.452;2023-04-29T08:39:39;16.58;;;12.57;;
24685;SDS011;12804;51.176;4.452;2023-04-29T08:42:10;12.98;;;10.10;;
24685;SDS011;12804;51.176;4.452;2023-04-29T08:44:37;16.73;;;12.75;;
24685;SDS011;12804;51.176;4.452;2023-04-29T08:47:04;16.63;;;12.13;;
24685;SDS011;12804;51.176;4.452;2023-04-29T08:49:31;17.52;;;11.88;;
24685;SDS011;12804;51.176;4.452;2023-04-29T08:51:58;17.83;;;12.23;;
24685;SDS011;12804;51.176;4.452;2023-04-29T08:54:24;19.52;;;12.55;;
24685;SDS011;12804;51.176;4.452;2023-04-29T08:56:52;16.63;;;11.85;;
24685;SDS011;12804;51.176;4.452;2023-04-29T08:59:22;16.83;;;11.77;;
24685;SDS011;12804;51.176;4.452;2023-04-29T09:01:49;15.57;;;11.00;;
24685;SDS011;12804;51.176;4.452;2023-04-29T09:04:36;13.73;;;10.00;;
24685;SDS011;12804;51.176;4.452;2023-04-29T09:07:15;14.85;;;10.10;;
24685;SDS011;12804;51.176;4.452;2023-04-29T09:09:41;14.90;;;10.18;;
24685;SDS011;12804;51.176;4.452;2023-04-29T09:12:08;15.85;;;10.55;;
24685;SDS011;12804;51.176;4.452;2023-04-29T09:14:34;13.45;;;10.73;;
24685;SDS011;12804;51.176;4.452;2023-04-29T09:17:00;13.35;;;10.98;;
24685;SDS011;12804;51.176;4.452;2023-04-29T09:19:30;13.63;;;10.30;;
24685;SDS011;12804;51.176;4.452;2023-04-29T09:22:01;13.77;;;10.55;;
24685;SDS011;12804;51.176;4.452;2023-04-29T09:24:28;13.95;;;10.30;;
24685;SDS011;12804;51.176;4.452;2023-04-29T09:26:58;13.32;;;9.48;;
24685;SDS011;12804;51.176;4.452;2023-04-29T09:29:25;12.77;;;10.60;;
24685;SDS011;12804;51.176;4.452;2023-04-29T09:31:51;15.20;;;11.27;;
24685;SDS011;12804;51.176;4.452;2023-04-29T09:34:29;12.10;;;9.45;;
24685;SDS011;12804;51.176;4.452;2023-04-29T09:37:00;13.40;;;9.77;;
24685;SDS011;12804;51.176;4.452;2023-04-29T09:39:26;12.00;;;9.48;;
24685;SDS011;12804;51.176;4.452;2023-04-29T09:44:18;11.82;;;9.25;;
24685;SDS011;12804;51.176;4.452;2023-04-29T09:49:24;14.63;;;9.75;;
24685;SDS011;12804;51.176;4.452;2023-04-29T09:51:59;13.52;;;10.10;;
24685;SDS011;12804;51.176;4.452;2023-04-29T09:54:26;15.63;;;10.18;;
24685;SDS011;12804;51.176;4.452;2023-04-29T09:56:53;11.82;;;9.15;;
24685;SDS011;12804;51.176;4.452;2023-04-29T09:59:20;11.98;;;8.43;;
24685;SDS011;12804;51.176;4.452;2023-04-29T10:01:47;10.10;;;8.40;;
24685;SDS011;12804;51.176;4.452;2023-04-29T10:04:15;14.13;;;9.27;;
24685;SDS011;12804;51.176;4.452;2023-04-29T10:06:43;17.75;;;9.52;;
24685;SDS011;12804;51.176;4.452;2023-04-29T10:09:13;10.93;;;8.15;;
24685;SDS011;12804;51.176;4.452;2023-04-29T10:11:40;9.05;;;7.38;;
24685;SDS011;12804;51.176;4.452;2023-04-29T10:14:11;9.38;;;7.65;;
24685;SDS011;12804;51.176;4.452;2023-04-29T10:16:48;11.30;;;7.90;;
24685;SDS011;12804;51.176;4.452;2023-04-29T10:19:38;10.05;;;8.05;;
24685;SDS011;12804;51.176;4.452;2023-04-29T10:22:16;10.15;;;7.53;;
24685;SDS011;12804;51.176;4.452;2023-04-29T10:24:51;9.73;;;7.60;;
24685;SDS011;12804;51.176;4.452;2023-04-29T10:27:19;10.90;;;7.95;;
24685;SDS011;12804;51.176;4.452;2023-04-29T10:29:47;9.25;;;7.18;;
24685;SDS011;12804;51.176;4.452;2023-04-29T10:32:14;8.55;;;6.97;;
24685;SDS011;12804;51.176;4.452;2023-04-29T10:34:41;11.43;;;7.57;;
24685;SDS011;12804;51.176;4.452;2023-04-29T10:37:11;8.70;;;7.18;;
24685;SDS011;12804;51.176;4.452;2023-04-29T10:42:42;7.63;;;6.57;;
24685;SDS011;12804;51.176;4.452;2023-04-29T10:50:39;9.75;;;7.50;;
24685;SDS011;12804;51.176;4.452;2023-04-29T10:53:09;10.63;;;7.93;;
24685;SDS011;12804;51.176;4.452;2023-04-29T10:55:35;9.93;;;7.72;;
24685;SDS011;12804;51.176;4.452;2023-04-29T10:58:02;8.93;;;6.82;;
24685;SDS011;12804;51.176;4.452;2023-04-29T11:00:30;9.77;;;8.05;;
24685;SDS011;12804;51.176;4.452;2023-04-29T11:02:58;9.65;;;7.35;;
24685;SDS011;12804;51.176;4.452;2023-04-29T11:05:32;10.35;;;8.10;;
24685;SDS011;12804;51.176;4.452;2023-04-29T11:08:20;10.18;;;7.47;;
24685;SDS011;12804;51.176;4.452;2023-04-29T11:10:51;9.15;;;7.13;;
24685;SDS011;12804;51.176;4.452;2023-04-29T11:13:28;8.25;;;7.20;;
24685;SDS011;12804;51.176;4.452;2023-04-29T11:16:05;9.82;;;7.57;;
24685;SDS011;12804;51.176;4.452;2023-04-29T11:18:33;9.77;;;7.32;;
24685;SDS011;12804;51.176;4.452;2023-04-29T11:23:50;9.13;;;6.75;;
24685;SDS011;12804;51.176;4.452;2023-04-29T11:26:19;9.52;;;7.35;;
24685;SDS011;12804;51.176;4.452;2023-04-29T11:28:45;8.35;;;7.10;;
24685;SDS011;12804;51.176;4.452;2023-04-29T11:31:12;6.28;;;5.60;;
24685;SDS011;12804;51.176;4.452;2023-04-29T11:33:38;8.25;;;7.03;;
24685;SDS011;12804;51.176;4.452;2023-04-29T11:36:04;10.63;;;7.35;;
24685;SDS011;12804;51.176;4.452;2023-04-29T11:38:30;12.18;;;7.43;;
24685;SDS011;12804;51.176;4.452;2023-04-29T11:40:56;7.72;;;6.35;;
24685;SDS011;12804;51.176;4.452;2023-04-29T11:43:23;9.55;;;7.03;;
24685;SDS011;12804;51.176;4.452;2023-04-29T11:45:50;8.98;;;7.22;;
24685;SDS011;12804;51.176;4.452;2023-04-29T11:48:24;10.43;;;6.70;;
24685;SDS011;12804;51.176;4.452;2023-04-29T11:50:57;10.55;;;6.88;;
24685;SDS011;12804;51.176;4.452;2023-04-29T11:53:24;9.77;;;7.00;;
24685;SDS011;12804;51.176;4.452;2023-04-29T11:55:54;7.40;;;6.25;;
24685;SDS011;12804;51.176;4.452;2023-04-29T11:58:21;9.57;;;6.35;;
24685;SDS011;12804;51.176;4.452;2023-04-29T12:00:48;10.10;;;7.28;;
24685;SDS011;12804;51.176;4.452;2023-04-29T12:03:14;9.32;;;7.07;;
24685;SDS011;12804;51.176;4.452;2023-04-29T12:05:51;8.20;;;6.05;;
24685;SDS011;12804;51.176;4.452;2023-04-29T12:08:23;6.97;;;5.93;;
24685;SDS011;12804;51.176;4.452;2023-04-29T12:10:51;8.00;;;6.78;;
24685;SDS011;12804;51.176;4.452;2023-04-29T12:13:18;7.78;;;6.43;;
24685;SDS011;12804;51.176;4.452;2023-04-29T12:15:45;8.60;;;7.20;;
24685;SDS011;12804;51.176;4.452;2023-04-29T12:18:13;8.07;;;6.13;;
24685;SDS011;12804;51.176;4.452;2023-04-29T12:20:40;9.77;;;7.00;;
24685;SDS011;12804;51.176;4.452;2023-04-29T12:23:22;7.70;;;6.18;;
24685;SDS011;12804;51.176;4.452;2023-04-29T12:25:54;9.25;;;5.97;;
24685;SDS011;12804;51.176;4.452;2023-04-29T12:28:21;7.50;;;4.93;;
24685;SDS011;12804;51.176;4.452;2023-04-29T12:30:48;6.90;;;6.15;;
24685;SDS011;12804;51.176;4.452;2023-04-29T12:33:22;7.10;;;5.63;;
24685;SDS011;12804;51.176;4.452;2023-04-29T12:35:50;8.25;;;5.97;;
24685;SDS011;12804;51.176;4.452;2023-04-29T12:38:20;7.00;;;6.30;;
24685;SDS011;12804;51.176;4.452;2023-04-29T12:40:53;7.97;;;6.53;;
24685;SDS011;12804;51.176;4.452;2023-04-29T12:43:27;7.80;;;6.00;;
24685;SDS011;12804;51.176;4.452;2023-04-29T12:45:54;6.85;;;6.15;;
24685;SDS011;12804;51.176;4.452;2023-04-29T12:48:33;6.07;;;5.03;;
24685;SDS011;12804;51.176;4.452;2023-04-29T12:51:01;7.45;;;6.05;;
24685;SDS011;12804;51.176;4.452;2023-04-29T12:53:30;5.75;;;5.25;;
24685;SDS011;12804;51.176;4.452;2023-04-29T12:55:56;6.03;;;5.43;;
24685;SDS011;12804;51.176;4.452;2023-04-29T12:58:22;5.65;;;5.10;;
24685;SDS011;12804;51.176;4.452;2023-04-29T13:00:48;6.03;;;5.43;;
24685;SDS011;12804;51.176;4.452;2023-04-29T13:03:15;5.72;;;5.13;;
24685;SDS011;12804;51.176;4.452;2023-04-29T13:05:40;5.72;;;4.63;;
24685;SDS011;12804;51.176;4.452;2023-04-29T13:08:06;6.65;;;5.20;;
24685;SDS011;12804;51.176;4.452;2023-04-29T13:10:34;6.43;;;5.60;;
24685;SDS011;12804;51.176;4.452;2023-04-29T13:13:00;5.68;;;4.78;;
24685;SDS011;12804;51.176;4.452;2023-04-29T13:15:26;5.90;;;5.15;;
24685;SDS011;12804;51.176;4.452;2023-04-29T13:17:52;10.10;;;5.88;;
24685;SDS011;12804;51.176;4.452;2023-04-29T13:20:19;5.60;;;4.93;;
24685;SDS011;12804;51.176;4.452;2023-04-29T13:22:45;7.15;;;5.80;;
24685;SDS011;12804;51.176;4.452;2023-04-29T13:25:12;5.72;;;5.22;;
24685;SDS011;12804;51.176;4.452;2023-04-29T13:27:40;8.13;;;6.00;;
24685;SDS011;12804;51.176;4.452;2023-04-29T13:30:06;5.20;;;4.70;;
24685;SDS011;12804;51.176;4.452;2023-04-29T13:32:33;5.15;;;4.65;;
24685;SDS011;12804;51.176;4.452;2023-04-29T13:34:58;6.68;;;5.38;;
24685;SDS011;12804;51.176;4.452;2023-04-29T13:37:25;9.60;;;5.88;;
24685;SDS011;12804;51.176;4.452;2023-04-29T13:39:50;7.72;;;5.45;;
24685;SDS011;12804;51.176;4.452;2023-04-29T13:42:16;9.85;;;6.20;;
24685;SDS011;12804;51.176;4.452;2023-04-29T13:44:42;6.88;;;5.47;;
24685;SDS011;12804;51.176;4.452;2023-04-29T13:47:14;7.60;;;5.78;;
24685;SDS011;12804;51.176;4.452;2023-04-29T13:52:10;14.32;;;5.93;;
24685;SDS011;12804;51.176;4.452;2023-04-29T13:54:36;7.07;;;5.43;;
24685;SDS011;12804;51.176;4.452;2023-04-29T13:57:02;7.38;;;5.68;;
24685;SDS011;12804;51.176;4.452;2023-04-29T13:59:32;7.47;;;6.20;;
24685;SDS011;12804;51.176;4.452;2023-04-29T14:01:59;5.85;;;5.35;;
24685;SDS011;12804;51.176;4.452;2023-04-29T14:04:25;6.68;;;6.03;;
24685;SDS011;12804;51.176;4.452;2023-04-29T14:06:54;6.80;;;5.25;;
24685;SDS011;12804;51.176;4.452;2023-04-29T14:09:20;5.22;;;4.72;;
24685;SDS011;12804;51.176;4.452;2023-04-29T14:11:47;5.38;;;4.15;;
24685;SDS011;12804;51.176;4.452;2023-04-29T14:14:13;4.90;;;4.40;;
24685;SDS011;12804;51.176;4.452;2023-04-29T14:16:40;5.55;;;4.30;;
24685;SDS011;12804;51.176;4.452;2023-04-29T14:19:05;6.50;;;4.45;;
24685;SDS011;12804;51.176;4.452;2023-04-29T14:21:31;5.97;;;4.55;;
24685;SDS011;12804;51.176;4.452;2023-04-29T14:24:01;5.55;;;4.82;;
24685;SDS011;12804;51.176;4.452;2023-04-29T14:26:27;5.22;;;4.72;;
24685;SDS011;12804;51.176;4.452;2023-04-29T14:28:54;5.88;;;5.28;;
24685;SDS011;12804;51.176;4.452;2023-04-29T14:31:24;5.57;;;3.95;;
24685;SDS011;12804;51.176;4.452;2023-04-29T14:33:52;6.07;;;3.90;;
24685;SDS011;12804;51.176;4.452;2023-04-29T14:36:18;7.35;;;4.82;;
24685;SDS011;12804;51.176;4.452;2023-04-29T14:38:47;6.47;;;4.93;;
24685;SDS011;12804;51.176;4.452;2023-04-29T14:41:13;5.20;;;4.70;;
24685;SDS011;12804;51.176;4.452;2023-04-29T14:43:40;5.57;;;4.53;;
24685;SDS011;12804;51.176;4.452;2023-04-29T14:46:06;7.53;;;5.38;;
24685;SDS011;12804;51.176;4.452;2023-04-29T14:48:32;5.35;;;4.85;;
24685;SDS011;12804;51.176;4.452;2023-04-29T14:50:58;4.90;;;4.20;;
24685;SDS011;12804;51.176;4.452;2023-04-29T14:53:24;4.45;;;4.05;;
24685;SDS011;12804;51.176;4.452;2023-04-29T14:55:50;5.38;;;4.00;;
24685;SDS011;12804;51.176;4.452;2023-04-29T14:58:16;5.78;;;4.47;;
24685;SDS011;12804;51.176;4.452;2023-04-29T15:00:42;4.78;;;4.10;;
24685;SDS011;12804;51.176;4.452;2023-04-29T15:03:08;6.50;;;4.40;;
24685;SDS011;12804;51.176;4.452;2023-04-29T15:05:34;5.00;;;3.70;;
24685;SDS011;12804;51.176;4.452;2023-04-29T15:08:00;4.75;;;3.90;;
24685;SDS011;12804;51.176;4.452;2023-04-29T15:10:26;5.07;;;3.97;;
24685;SDS011;12804;51.176;4.452;2023-04-29T15:12:53;4.15;;;3.75;;